createdAt,value
2022-11-18T00:01:09.491Z,6.65
2022-11-18T00:02:45.719Z,5.43
2022-11-18T00:04:26.988Z,7.55
2022-11-18T00:06:11.825Z,9.77
2022-11-18T00:07:47.848Z,6.63
2022-11-18T00:09:24.642Z,8.02
2022-11-18T00:11:06.282Z,5.55
2022-11-18T00:12:42.178Z,7.20
2022-11-18T00:14:21.815Z,9.55
2022-11-18T00:16:01.349Z,8.95
2022-11-18T00:17:37.741Z,6.80
2022-11-18T00:19:13.646Z,8.88
2022-11-18T00:20:49.449Z,6.43
2022-11-18T00:22:29.757Z,6.05
2022-11-18T00:24:05.793Z,7.28
2022-11-18T00:25:44.424Z,9.15
2022-11-18T00:27:19.137Z,8.60
2022-11-18T00:28:55.231Z,16.60
2022-11-18T00:30:29.797Z,9.27
2022-11-18T00:32:06.305Z,9.27
2022-11-18T00:33:41.911Z,12.82
2022-11-18T00:35:18.036Z,8.30
2022-11-18T00:36:53.327Z,14.25
2022-11-18T00:38:30.490Z,12.63
2022-11-18T00:40:08.654Z,7.28
2022-11-18T00:41:46.518Z,6.22
2022-11-18T00:43:22.292Z,8.05
2022-11-18T00:44:58.500Z,11.25
2022-11-18T00:46:34.379Z,12.68
2022-11-18T00:48:09.496Z,8.38
2022-11-18T00:49:44.958Z,9.50
2022-11-18T00:51:25.471Z,15.70
2022-11-18T00:53:00.251Z,8.88
2022-11-18T00:54:36.299Z,12.00
2022-11-18T00:56:12.373Z,8.35
2022-11-18T00:57:49.213Z,12.52
2022-11-18T00:59:24.228Z,13.88
2022-11-18T01:00:59.366Z,11.48
2022-11-18T01:02:34.854Z,9.85
2022-11-18T01:04:15.793Z,15.57
2022-11-18T01:05:56.546Z,13.52
2022-11-18T01:07:32.745Z,8.77
2022-11-18T01:09:08.830Z,10.93
2022-11-18T01:10:46.847Z,9.20
2022-11-18T01:12:22.895Z,13.80
2022-11-18T01:13:59.933Z,11.57
2022-11-18T01:15:39.611Z,13.65
2022-11-18T01:17:16.018Z,14.35
2022-11-18T01:18:51.706Z,11.02
2022-11-18T01:20:27.719Z,10.00
2022-11-18T01:22:03.851Z,13.95
2022-11-18T01:23:40.233Z,9.88
2022-11-18T01:25:15.576Z,13.77
2022-11-18T01:26:52.048Z,9.75
2022-11-18T01:28:27.679Z,8.82
2022-11-18T01:30:07.109Z,11.75
2022-11-18T01:32:02.099Z,9.90
2022-11-18T01:33:38.896Z,10.60
2022-11-18T01:35:13.957Z,9.90
2022-11-18T01:36:48.861Z,9.63
2022-11-18T01:38:24.205Z,12.02
2022-11-18T01:40:00.175Z,11.05
2022-11-18T01:41:35.789Z,12.40
2022-11-18T01:43:14.116Z,11.98
2022-11-18T01:45:29.236Z,14.40
2022-11-18T01:47:05.432Z,11.25
2022-11-18T01:48:40.762Z,9.63
2022-11-18T01:50:01.712Z,14.02
2022-11-18T01:51:44.052Z,9.77
2022-11-18T01:53:09.045Z,12.95
2022-11-18T01:54:33.981Z,13.25
2022-11-18T01:55:59.115Z,13.88
2022-11-18T01:57:22.549Z,15.77
2022-11-18T01:58:47.280Z,11.02
2022-11-18T02:00:11.342Z,12.88
2022-11-18T02:01:32.225Z,12.48
2022-11-18T02:02:53.347Z,14.15
2022-11-18T02:05:36.855Z,14.32
2022-11-18T02:06:57.942Z,17.75
2022-11-18T02:08:20.667Z,11.15
2022-11-18T02:09:42.077Z,12.68
2022-11-18T02:11:02.610Z,13.18
2022-11-18T02:12:23.772Z,18.20
2022-11-18T02:13:44.688Z,12.60
2022-11-18T02:15:07.061Z,12.32
2022-11-18T02:16:45.198Z,14.60
2022-11-18T02:18:14.981Z,13.13
2022-11-18T02:20:27.033Z,14.98
2022-11-18T02:22:04.432Z,16.15
2022-11-18T02:24:07.005Z,15.77
2022-11-18T02:25:41.399Z,14.60
2022-11-18T02:27:52.360Z,12.95
2022-11-18T02:29:20.758Z,15.00
2022-11-18T02:30:53.005Z,13.45
2022-11-18T02:32:18.906Z,11.38
2022-11-18T02:33:49.241Z,12.52
2022-11-18T02:35:18.316Z,17.33
2022-11-18T02:36:44.605Z,13.23
2022-11-18T02:38:09.393Z,12.23
2022-11-18T02:39:35.651Z,15.02
2022-11-18T02:41:03.280Z,14.00
2022-11-18T02:42:26.429Z,11.40
2022-11-18T02:43:51.589Z,14.77
2022-11-18T02:45:17.673Z,15.35
2022-11-18T02:46:40.141Z,13.30
2022-11-18T02:48:06.954Z,13.93
2022-11-18T02:49:35.769Z,16.25
2022-11-18T02:50:58.153Z,14.75
2022-11-18T02:52:20.629Z,13.88
2022-11-18T02:53:43.410Z,13.10
2022-11-18T02:55:10.070Z,13.02
2022-11-18T02:56:32.817Z,18.30
2022-11-18T02:57:54.461Z,16.70
2022-11-18T02:59:10.763Z,17.17
2022-11-18T03:00:33.996Z,16.65
2022-11-18T03:01:54.988Z,19.52
2022-11-18T03:03:27.861Z,27.73
2022-11-18T03:04:53.206Z,18.13
2022-11-18T03:06:27.653Z,16.83
2022-11-18T03:07:54.813Z,16.75
2022-11-18T03:09:22.532Z,14.70
2022-11-18T03:10:52.708Z,20.10
2022-11-18T03:12:23.790Z,13.38
2022-11-18T03:14:03.042Z,21.10
2022-11-18T03:15:33.056Z,15.60
2022-11-18T03:17:03.454Z,15.70
2022-11-18T03:18:32.136Z,17.13
2022-11-18T03:20:07.814Z,15.27
2022-11-18T03:21:36.379Z,15.75
2022-11-18T03:23:04.177Z,16.10
2022-11-18T03:24:30.026Z,18.02
2022-11-18T03:25:55.408Z,15.13
2022-11-18T03:27:21.879Z,13.55
2022-11-18T03:28:48.526Z,12.20
2022-11-18T03:30:15.801Z,15.75
2022-11-18T03:31:41.993Z,14.77
2022-11-18T03:33:11.762Z,15.73
2022-11-18T03:34:37.593Z,18.92
2022-11-18T03:36:01.314Z,14.65
2022-11-18T03:37:24.762Z,18.35
2022-11-18T03:38:51.713Z,13.98
2022-11-18T03:40:17.712Z,13.73
2022-11-18T03:41:44.706Z,16.08
2022-11-18T03:43:13.173Z,16.73
2022-11-18T03:44:40.258Z,17.25
2022-11-18T03:46:06.392Z,16.02
2022-11-18T03:47:32.476Z,15.18
2022-11-18T03:48:56.706Z,14.73
2022-11-18T03:50:22.273Z,18.95
2022-11-18T03:51:48.262Z,18.55
2022-11-18T03:53:11.006Z,15.40
2022-11-18T03:54:35.389Z,15.45
2022-11-18T03:56:15.741Z,13.45
2022-11-18T03:57:45.737Z,17.55
2022-11-18T03:59:15.832Z,12.23
2022-11-18T04:00:41.954Z,14.55
2022-11-18T04:02:10.882Z,16.20
2022-11-18T04:03:31.823Z,13.48
2022-11-18T04:04:57.369Z,17.50
2022-11-18T04:06:30.077Z,18.40
2022-11-18T04:07:58.357Z,14.98
2022-11-18T04:09:23.787Z,12.13
2022-11-18T04:10:50.957Z,12.48
2022-11-18T04:12:17.247Z,17.17
2022-11-18T04:13:38.806Z,16.63
2022-11-18T04:16:20.734Z,12.43
2022-11-18T04:17:42.662Z,19.95
2022-11-18T04:19:06.308Z,17.90
2022-11-18T04:20:30.018Z,12.55
2022-11-18T04:21:51.222Z,18.27
2022-11-18T04:23:11.822Z,14.48
2022-11-18T04:24:32.686Z,19.30
2022-11-18T04:25:53.480Z,18.30
2022-11-18T04:27:14.233Z,13.88
2022-11-18T04:28:35.031Z,16.23
2022-11-18T04:29:55.940Z,18.13
2022-11-18T04:31:16.659Z,17.85
2022-11-18T04:32:37.538Z,12.32
2022-11-18T04:33:58.594Z,11.95
2022-11-18T04:35:19.214Z,15.43
2022-11-18T04:36:41.255Z,19.53
2022-11-18T04:38:01.731Z,13.07
2022-11-18T04:39:22.542Z,17.70
2022-11-18T04:40:43.423Z,17.70
2022-11-18T04:42:04.845Z,17.80
2022-11-18T04:43:25.295Z,8.07
2022-11-18T04:44:46.004Z,16.35
2022-11-18T04:46:06.728Z,13.38
2022-11-18T04:47:27.694Z,15.55
2022-11-18T04:48:48.282Z,16.45
2022-11-18T04:50:10.061Z,15.40
2022-11-18T04:51:31.021Z,12.90
2022-11-18T04:52:53.202Z,18.65
2022-11-18T04:54:15.265Z,18.92
2022-11-18T04:55:36.323Z,14.48
2022-11-18T04:56:57.516Z,17.33
2022-11-18T04:58:18.275Z,16.15
2022-11-18T04:59:39.099Z,11.63
2022-11-18T05:00:59.947Z,17.58
2022-11-18T05:03:45.084Z,15.40
2022-11-18T05:05:09.246Z,15.75
2022-11-18T05:06:31.155Z,13.25
2022-11-18T05:07:53.561Z,15.90
2022-11-18T05:09:14.478Z,10.90
2022-11-18T05:10:35.378Z,12.82
2022-11-18T05:11:55.959Z,13.90
2022-11-18T05:13:16.713Z,16.23
2022-11-18T05:14:37.815Z,19.38
2022-11-18T05:16:01.659Z,19.55
2022-11-18T05:17:22.834Z,17.75
2022-11-18T05:18:44.983Z,15.15
2022-11-18T05:20:07.448Z,19.55
2022-11-18T05:21:28.050Z,14.20
2022-11-18T05:22:48.713Z,14.43
2022-11-18T05:24:11.005Z,18.40
2022-11-18T05:25:31.847Z,19.10
2022-11-18T05:26:53.785Z,13.75
2022-11-18T05:28:14.465Z,13.77
2022-11-18T05:29:35.075Z,15.80
2022-11-18T05:30:55.848Z,24.35
2022-11-18T05:32:17.413Z,14.68
2022-11-18T05:34:59.235Z,19.23
2022-11-18T05:36:21.399Z,16.67
2022-11-18T05:37:41.974Z,18.95
2022-11-18T05:39:02.736Z,20.23
2022-11-18T05:40:24.584Z,17.53
2022-11-18T05:41:45.697Z,16.40
2022-11-18T05:43:06.415Z,14.60
2022-11-18T05:44:27.033Z,15.93
2022-11-18T05:45:51.797Z,21.20
2022-11-18T05:47:13.101Z,15.43
2022-11-18T05:48:34.269Z,17.83
2022-11-18T05:49:54.800Z,13.77
2022-11-18T05:51:15.621Z,21.13
2022-11-18T05:52:36.606Z,14.75
2022-11-18T05:53:58.402Z,19.25
2022-11-18T05:55:20.851Z,19.15
2022-11-18T05:56:44.538Z,20.35
2022-11-18T05:58:05.096Z,14.50
2022-11-18T05:59:26.318Z,21.33
2022-11-18T06:00:50.773Z,21.70
2022-11-18T06:02:15.596Z,16.15
2022-11-18T06:03:40.081Z,21.52
2022-11-18T06:05:04.252Z,17.10
2022-11-18T06:06:25.381Z,19.05
2022-11-18T06:07:46.473Z,15.23
2022-11-18T06:09:10.460Z,15.30
2022-11-18T06:10:36.926Z,27.63
2022-11-18T06:12:02.557Z,20.88
2022-11-18T06:13:30.223Z,21.65
2022-11-18T06:14:56.015Z,22.60
2022-11-18T06:16:19.337Z,19.23
2022-11-18T06:17:45.732Z,18.65
2022-11-18T06:19:06.949Z,19.90
2022-11-18T06:20:28.031Z,19.98
2022-11-18T06:21:49.503Z,14.95
2022-11-18T06:23:10.213Z,30.80
2022-11-18T06:24:30.938Z,16.77
2022-11-18T06:25:52.045Z,16.42
2022-11-18T06:27:15.801Z,16.23
2022-11-18T06:28:37.081Z,18.65
2022-11-18T06:29:57.499Z,23.70
2022-11-18T06:31:18.153Z,16.27
2022-11-18T06:32:39.099Z,17.97
2022-11-18T06:33:59.717Z,25.33
2022-11-18T06:35:20.586Z,19.88
2022-11-18T06:36:41.413Z,13.65
2022-11-18T06:38:02.098Z,17.47
2022-11-18T06:39:22.854Z,13.75
2022-11-18T06:40:43.765Z,13.65
2022-11-18T06:42:04.795Z,16.58
2022-11-18T06:43:27.496Z,17.33
2022-11-18T06:44:48.169Z,18.55
2022-11-18T06:46:12.049Z,21.25
2022-11-18T06:47:32.997Z,28.73
2022-11-18T06:48:54.028Z,12.70
2022-11-18T06:50:14.792Z,15.45
2022-11-18T06:51:35.457Z,18.70
2022-11-18T06:52:56.552Z,13.87
2022-11-18T06:54:18.660Z,18.48
2022-11-18T06:55:39.596Z,22.60
2022-11-18T06:57:00.329Z,18.55
2022-11-18T06:58:21.145Z,16.58
2022-11-18T06:59:43.410Z,19.70
2022-11-18T07:01:12.167Z,21.52
2022-11-18T07:02:35.633Z,20.63
2022-11-18T07:03:59.199Z,18.63
2022-11-18T07:05:20.236Z,15.93
2022-11-18T07:06:41.591Z,18.08
2022-11-18T07:08:02.794Z,18.85
2022-11-18T07:09:23.966Z,17.92
2022-11-18T07:10:53.680Z,14.88
2022-11-18T07:12:14.699Z,23.50
2022-11-18T07:13:40.584Z,19.10
2022-11-18T07:15:08.605Z,16.55
2022-11-18T07:16:29.820Z,16.25
2022-11-18T07:17:50.720Z,22.13
2022-11-18T07:19:13.525Z,22.17
2022-11-18T07:20:35.367Z,23.65
2022-11-18T07:21:56.402Z,17.35
2022-11-18T07:23:17.332Z,15.82
2022-11-18T07:24:38.206Z,15.13
2022-11-18T07:25:59.747Z,14.43
2022-11-18T07:27:21.042Z,24.00
2022-11-18T07:28:42.254Z,14.70
2022-11-18T07:30:05.812Z,21.58
2022-11-18T07:31:26.747Z,18.45
2022-11-18T07:32:47.630Z,18.85
2022-11-18T07:34:17.204Z,18.77
2022-11-18T07:35:38.045Z,16.48
2022-11-18T07:36:58.917Z,20.92
2022-11-18T07:38:19.772Z,15.30
2022-11-18T07:39:40.749Z,15.80
2022-11-18T07:41:06.649Z,16.75
2022-11-18T07:42:27.429Z,18.45
2022-11-18T07:43:49.746Z,17.60
2022-11-18T07:45:12.509Z,18.17
2022-11-18T07:46:35.472Z,19.85
2022-11-18T07:47:56.178Z,18.25
2022-11-18T07:49:17.398Z,22.75
2022-11-18T07:52:05.136Z,15.52
2022-11-18T07:53:26.665Z,18.77
2022-11-18T07:54:47.444Z,18.55
2022-11-18T07:56:09.033Z,25.38
2022-11-18T07:57:31.070Z,17.23
2022-11-18T07:58:53.902Z,15.32
2022-11-18T08:00:17.660Z,18.02
2022-11-18T08:01:38.526Z,18.60
2022-11-18T08:02:59.251Z,18.98
2022-11-18T08:04:20.417Z,21.90
2022-11-18T08:05:41.689Z,18.77
2022-11-18T08:07:02.806Z,20.50
2022-11-18T08:08:24.293Z,19.65
2022-11-18T08:09:45.052Z,22.92
2022-11-18T08:11:09.089Z,17.63
2022-11-18T08:12:30.161Z,18.98
2022-11-18T08:13:51.742Z,19.42
2022-11-18T08:15:12.366Z,22.10
2022-11-18T08:16:34.531Z,22.95
2022-11-18T08:17:55.278Z,21.75
2022-11-18T08:19:16.799Z,20.27
2022-11-18T08:21:59.156Z,17.27
2022-11-18T08:23:20.315Z,15.98
2022-11-18T08:24:40.893Z,19.33
2022-11-18T08:26:03.144Z,17.40
2022-11-18T08:27:24.285Z,16.05
2022-11-18T08:28:46.027Z,13.00
2022-11-18T08:30:08.854Z,16.10
2022-11-18T08:31:30.690Z,17.08
2022-11-18T08:32:52.652Z,14.32
2022-11-18T08:34:13.153Z,20.88
2022-11-18T08:35:35.104Z,22.38
2022-11-18T08:36:56.026Z,22.92
2022-11-18T08:38:17.424Z,22.13
2022-11-18T08:39:38.395Z,21.45
2022-11-18T08:40:59.214Z,17.50
2022-11-18T08:42:23.253Z,23.30
2022-11-18T08:43:45.397Z,14.63
2022-11-18T08:45:07.906Z,23.13
2022-11-18T08:46:28.647Z,14.35
2022-11-18T08:47:49.497Z,14.93
2022-11-18T08:49:11.870Z,14.70
2022-11-18T08:50:32.361Z,17.45
2022-11-18T08:51:53.085Z,19.70
2022-11-18T08:53:15.645Z,21.40
2022-11-18T08:54:36.838Z,15.30
2022-11-18T08:55:58.304Z,19.98
2022-11-18T08:57:20.304Z,17.58
2022-11-18T08:58:40.893Z,10.40
2022-11-18T09:00:02.393Z,15.20
2022-11-18T09:02:44.824Z,14.50
2022-11-18T09:04:08.933Z,18.70
2022-11-18T09:05:32.148Z,22.98
2022-11-18T09:06:53.297Z,14.85
2022-11-18T09:08:14.466Z,20.73
2022-11-18T09:09:35.174Z,15.75
2022-11-18T09:10:56.025Z,20.90
2022-11-18T09:12:16.905Z,13.65
2022-11-18T09:14:39.062Z,21.27
2022-11-18T09:15:19.492Z,17.48
2022-11-18T09:16:41.950Z,19.30
2022-11-18T09:18:02.837Z,20.27
2022-11-18T09:19:46.305Z,18.23
2022-11-18T09:21:09.632Z,21.90
2022-11-18T09:22:30.335Z,17.15
2022-11-18T09:23:51.527Z,18.10
2022-11-18T09:25:12.126Z,25.10
2022-11-18T09:26:33.206Z,22.63
2022-11-18T09:27:53.752Z,27.48
2022-11-18T09:29:14.904Z,19.05
2022-11-18T09:30:35.963Z,14.85
2022-11-18T09:31:56.596Z,16.90
2022-11-18T09:33:20.566Z,14.07
2022-11-18T09:34:41.628Z,19.45
2022-11-18T09:36:02.606Z,19.33
2022-11-18T09:37:24.657Z,13.85
2022-11-18T09:38:49.844Z,16.60
2022-11-18T09:40:17.420Z,18.83
2022-11-18T09:41:45.855Z,20.90
2022-11-18T09:43:19.137Z,20.92
2022-11-18T09:44:54.130Z,17.08
2022-11-18T09:46:26.666Z,22.35
2022-11-18T09:47:48.306Z,18.35
2022-11-18T09:49:15.240Z,16.73
2022-11-18T09:50:55.745Z,14.10
2022-11-18T09:52:21.653Z,23.33
2022-11-18T09:53:45.744Z,22.52
2022-11-18T09:55:13.442Z,20.35
2022-11-18T09:56:34.287Z,16.10
2022-11-18T09:57:57.956Z,14.80
2022-11-18T09:59:21.391Z,15.95
2022-11-18T10:00:44.142Z,16.23
2022-11-18T10:02:41.578Z,20.58
2022-11-18T10:04:02.558Z,19.45
2022-11-18T10:05:26.209Z,17.80
2022-11-18T10:06:48.518Z,17.33
2022-11-18T10:08:25.248Z,17.40
2022-11-18T10:09:51.601Z,17.00
2022-11-18T10:11:18.020Z,16.40
2022-11-18T10:12:55.553Z,21.30
2022-11-18T10:14:31.695Z,19.52
2022-11-18T10:16:23.052Z,18.55
2022-11-18T10:18:37.927Z,18.23
2022-11-18T10:20:42.097Z,18.25
2022-11-18T10:22:27.865Z,16.52
2022-11-18T10:23:54.948Z,19.35
2022-11-18T10:25:18.300Z,16.98
2022-11-18T10:26:41.247Z,17.63
2022-11-18T10:28:23.337Z,23.10
2022-11-18T10:29:45.869Z,21.95
2022-11-18T10:31:12.973Z,16.80
2022-11-18T10:32:33.794Z,18.83
2022-11-18T10:34:00.671Z,19.42
2022-11-18T10:35:27.060Z,15.02
2022-11-18T10:37:00.508Z,25.83
2022-11-18T10:38:21.445Z,18.52
2022-11-18T10:39:50.657Z,13.55
2022-11-18T10:41:15.732Z,26.02
2022-11-18T10:42:42.048Z,21.70
2022-11-18T10:44:11.850Z,16.80
2022-11-18T10:45:33.376Z,16.17
2022-11-18T10:46:54.367Z,18.27
2022-11-18T10:49:39.561Z,16.75
2022-11-18T10:51:24.279Z,15.60
2022-11-18T10:52:53.183Z,17.60
2022-11-18T10:54:17.758Z,18.80
2022-11-18T10:55:38.708Z,24.10
2022-11-18T10:57:05.636Z,18.80
2022-11-18T10:58:28.755Z,19.60
2022-11-18T10:59:52.053Z,15.90
2022-11-18T11:01:21.470Z,17.80
2022-11-18T11:02:42.897Z,22.55
2022-11-18T11:05:32.860Z,14.93
2022-11-18T11:06:56.829Z,22.83
2022-11-18T11:08:36.939Z,19.02
2022-11-18T11:10:19.421Z,17.25
2022-11-18T11:11:54.765Z,20.73
2022-11-18T11:13:18.082Z,20.45
2022-11-18T11:14:52.042Z,22.10
2022-11-18T11:16:21.111Z,22.45
2022-11-18T11:17:52.264Z,24.10
2022-11-18T11:19:14.563Z,14.52
2022-11-18T11:20:35.699Z,20.50
2022-11-18T11:21:57.805Z,30.50
2022-11-18T11:23:23.423Z,18.75
2022-11-18T11:24:45.273Z,20.77
2022-11-18T11:28:17.169Z,25.50
2022-11-18T11:30:15.439Z,22.67
2022-11-18T11:31:49.563Z,21.20
2022-11-18T11:33:42.050Z,18.65
2022-11-18T11:35:12.591Z,21.08
2022-11-18T11:36:42.572Z,23.90
2022-11-18T11:38:13.575Z,22.23
2022-11-18T11:40:08.526Z,20.15
2022-11-18T11:41:36.474Z,27.02
2022-11-18T11:43:25.558Z,25.02
2022-11-18T11:45:01.406Z,23.02
2022-11-18T11:46:34.982Z,23.40
2022-11-18T11:48:22.630Z,23.08
2022-11-18T11:49:53.087Z,21.45
2022-11-18T11:51:22.512Z,18.50
2022-11-18T11:52:55.480Z,25.65
2022-11-18T11:54:37.393Z,22.77
2022-11-18T11:57:39.837Z,29.75
2022-11-18T11:59:17.746Z,21.67
2022-11-18T12:00:44.904Z,25.10
2022-11-18T12:02:54.371Z,26.95
2022-11-18T12:04:32.635Z,21.23
2022-11-18T12:05:53.269Z,26.00
2022-11-18T12:07:19.435Z,24.27
2022-11-18T12:08:59.682Z,22.83
2022-11-18T12:10:36.422Z,23.17
2022-11-18T12:12:07.951Z,25.65
2022-11-18T12:13:40.661Z,24.13
2022-11-18T12:15:18.474Z,20.50
2022-11-18T12:16:49.095Z,24.35
2022-11-18T12:18:35.238Z,24.15
2022-11-18T12:19:55.478Z,24.95
2022-11-18T12:21:49.413Z,27.35
2022-11-18T12:23:12.103Z,26.05
2022-11-18T12:24:37.440Z,22.27
2022-11-18T12:26:03.598Z,24.90
2022-11-18T12:27:58.887Z,26.08
2022-11-18T12:29:23.157Z,31.25
2022-11-18T12:30:43.677Z,21.02
2022-11-18T12:32:12.771Z,23.15
2022-11-18T12:33:42.526Z,29.85
2022-11-18T12:35:05.850Z,31.33
2022-11-18T12:36:27.362Z,24.20
2022-11-18T12:38:03.670Z,33.80
2022-11-18T12:39:47.878Z,27.63
2022-11-18T12:41:38.453Z,31.75
2022-11-18T12:42:58.928Z,27.05
2022-11-18T12:44:23.379Z,29.15
2022-11-18T12:45:58.849Z,23.92
2022-11-18T12:47:59.609Z,27.98
2022-11-18T12:50:11.606Z,28.60
2022-11-18T12:51:41.631Z,32.08
2022-11-18T12:53:02.200Z,29.50
2022-11-18T12:54:31.726Z,28.83
2022-11-18T12:55:52.127Z,25.30
2022-11-18T12:57:18.669Z,29.83
2022-11-18T12:58:44.771Z,34.28
2022-11-18T13:00:17.870Z,28.27
2022-11-18T13:01:38.549Z,29.80
2022-11-18T13:03:01.813Z,30.83
2022-11-18T13:04:22.017Z,32.55
2022-11-18T13:05:42.758Z,25.35
2022-11-18T13:07:03.957Z,29.27
2022-11-18T13:08:24.701Z,26.67
2022-11-18T13:09:45.400Z,29.45
2022-11-18T13:11:11.262Z,26.33
2022-11-18T13:12:31.983Z,29.45
2022-11-18T13:13:54.499Z,28.33
2022-11-18T13:15:15.481Z,31.80
2022-11-18T13:16:38.670Z,30.45
2022-11-18T13:18:10.915Z,31.88
2022-11-18T13:19:31.489Z,28.33
2022-11-18T13:22:18.983Z,26.52
2022-11-18T13:23:39.614Z,24.73
2022-11-18T13:25:00.369Z,27.77
2022-11-18T13:26:25.542Z,27.55
2022-11-18T13:27:49.987Z,27.58
2022-11-18T13:29:29.198Z,26.30
2022-11-18T13:30:54.199Z,31.88
2022-11-18T13:32:21.472Z,27.95
2022-11-18T13:33:43.987Z,26.17
2022-11-18T13:35:12.112Z,24.38
2022-11-18T13:36:32.641Z,23.35
2022-11-18T13:37:55.201Z,29.75
2022-11-18T13:39:21.549Z,38.90
2022-11-18T13:40:45.393Z,30.25
2022-11-18T13:42:07.798Z,21.77
2022-11-18T13:43:28.859Z,29.92
2022-11-18T13:44:53.987Z,25.67
2022-11-18T13:46:17.678Z,28.15
2022-11-18T13:47:41.463Z,32.78
2022-11-18T13:49:03.749Z,29.55
2022-11-18T13:50:27.590Z,29.67
2022-11-18T13:51:48.345Z,27.27
2022-11-18T13:53:17.646Z,22.70
2022-11-18T13:54:38.166Z,24.98
2022-11-18T13:56:00.541Z,26.00
2022-11-18T13:57:23.393Z,28.70
2022-11-18T14:00:28.163Z,26.77
2022-11-18T14:01:55.143Z,25.77
2022-11-18T14:03:22.444Z,23.50
2022-11-18T14:04:52.696Z,30.27
2022-11-18T14:06:24.452Z,34.88
2022-11-18T14:09:20.489Z,23.73
2022-11-18T14:10:42.657Z,21.52
2022-11-18T14:12:05.197Z,33.28
2022-11-18T14:13:28.038Z,28.55
2022-11-18T14:14:48.926Z,35.03
2022-11-18T14:16:30.591Z,24.98
2022-11-18T14:17:53.333Z,25.40
2022-11-18T14:19:28.425Z,28.83
2022-11-18T14:20:55.546Z,27.33
2022-11-18T14:22:18.652Z,25.15
2022-11-18T14:23:43.133Z,35.40
2022-11-18T14:25:16.672Z,22.73
2022-11-18T14:26:38.440Z,29.10
2022-11-18T14:28:11.020Z,26.48
2022-11-18T14:29:31.323Z,29.17
2022-11-18T14:31:00.928Z,27.00
2022-11-18T14:32:21.160Z,28.35
2022-11-18T14:33:41.342Z,34.28
2022-11-18T14:35:01.970Z,30.80
2022-11-18T14:36:24.683Z,30.58
2022-11-18T14:37:45.374Z,27.75
2022-11-18T14:39:26.010Z,24.63
2022-11-18T14:40:47.548Z,26.25
2022-11-18T14:42:11.408Z,30.23
2022-11-18T14:43:32.019Z,29.92
2022-11-18T14:44:52.380Z,28.95
2022-11-18T14:46:16.353Z,23.17
2022-11-18T14:47:37.111Z,31.13
2022-11-18T14:48:57.711Z,23.38
2022-11-18T14:50:18.401Z,26.85
2022-11-18T14:51:40.129Z,18.52
2022-11-18T14:53:00.634Z,24.60
2022-11-18T14:54:26.392Z,33.70
2022-11-18T14:55:50.090Z,21.35
2022-11-18T14:57:14.212Z,24.50
2022-11-18T14:58:34.793Z,19.52
2022-11-18T14:59:55.344Z,22.60
2022-11-18T15:01:16.032Z,23.85
2022-11-18T15:02:37.005Z,29.73
2022-11-18T15:03:58.018Z,22.20
2022-11-18T15:05:18.564Z,22.33
2022-11-18T15:06:40.563Z,25.13
2022-11-18T15:08:01.105Z,19.55
2022-11-18T15:09:21.737Z,22.63
2022-11-18T15:10:41.990Z,21.73
2022-11-18T15:12:02.467Z,23.40
2022-11-18T15:13:23.198Z,20.50
2022-11-18T15:14:43.833Z,24.00
2022-11-18T15:16:11.898Z,21.65
2022-11-18T15:17:35.516Z,19.10
2022-11-18T15:19:00.463Z,22.73
2022-11-18T15:20:22.153Z,21.33
2022-11-18T15:21:44.670Z,21.13
2022-11-18T15:23:05.225Z,20.52
2022-11-18T15:24:25.683Z,19.60
2022-11-18T15:25:46.051Z,21.55
2022-11-18T15:27:06.730Z,21.75
2022-11-18T15:28:27.421Z,25.17
2022-11-18T15:29:48.077Z,21.80
2022-11-18T15:31:08.504Z,27.77
2022-11-18T15:32:29.313Z,27.33
2022-11-18T15:33:50.140Z,27.35
2022-11-18T15:35:12.311Z,28.73
2022-11-18T15:36:33.038Z,23.73
2022-11-18T15:37:55.035Z,25.00
2022-11-18T15:39:15.974Z,25.23
2022-11-18T15:40:36.440Z,26.58
2022-11-18T15:41:57.195Z,33.23
2022-11-18T15:43:17.771Z,23.80
2022-11-18T15:44:38.523Z,27.27
2022-11-18T15:45:59.793Z,27.58
2022-11-18T15:47:20.538Z,27.48
2022-11-18T15:48:41.175Z,24.52
2022-11-18T15:50:01.709Z,26.17
2022-11-18T15:51:22.794Z,24.55
2022-11-18T15:52:43.669Z,23.80
2022-11-18T15:54:06.369Z,26.73
2022-11-18T15:55:27.132Z,31.15
2022-11-18T15:56:47.397Z,32.42
2022-11-18T15:58:07.930Z,28.77
2022-11-18T15:59:28.755Z,28.73
2022-11-18T16:00:49.491Z,33.30
2022-11-18T16:02:10.679Z,36.08
2022-11-18T16:03:30.997Z,33.77
2022-11-18T16:04:51.955Z,36.23
2022-11-18T16:06:12.394Z,38.05
2022-11-18T16:07:33.201Z,27.30
2022-11-18T16:08:59.534Z,40.97
2022-11-18T16:10:21.997Z,36.92
2022-11-18T16:11:42.779Z,30.85
2022-11-18T16:13:03.590Z,34.53
2022-11-18T16:14:24.338Z,34.67
2022-11-18T16:15:44.904Z,40.30
2022-11-18T16:17:05.705Z,42.72
2022-11-18T16:18:26.011Z,33.38
2022-11-18T16:19:46.635Z,38.87
2022-11-18T16:21:07.347Z,38.90
2022-11-18T16:22:27.964Z,36.23
2022-11-18T16:23:48.444Z,40.67
2022-11-18T16:25:09.683Z,36.45
2022-11-18T16:26:32.561Z,32.35
2022-11-18T16:27:53.316Z,42.45
2022-11-18T16:29:14.324Z,32.30
2022-11-18T16:30:34.878Z,36.83
2022-11-18T16:31:55.177Z,32.42
2022-11-18T16:33:15.597Z,33.83
2022-11-18T16:34:38.893Z,44.35
2022-11-18T16:35:59.503Z,38.03
2022-11-18T16:37:20.232Z,48.15
2022-11-18T16:38:40.787Z,36.33
2022-11-18T16:40:01.414Z,42.80
2022-11-18T16:41:21.738Z,56.90
2022-11-18T16:42:43.704Z,49.03
2022-11-18T16:44:06.075Z,39.35
2022-11-18T16:45:26.508Z,36.90
2022-11-18T16:46:48.242Z,43.75
2022-11-18T16:48:08.680Z,37.20
2022-11-18T16:49:29.647Z,54.35
2022-11-18T16:51:00.031Z,46.43
2022-11-18T16:52:21.002Z,39.80
2022-11-18T16:53:41.404Z,49.20
2022-11-18T16:55:02.093Z,41.95
2022-11-18T16:56:24.270Z,36.28
2022-11-18T16:57:46.115Z,35.38
2022-11-18T16:59:11.847Z,40.35
2022-11-18T17:00:59.922Z,45.05
2022-11-18T17:02:13.305Z,37.10
2022-11-18T17:03:34.033Z,41.97
2022-11-18T17:04:56.095Z,46.00
2022-11-18T17:06:16.537Z,44.28
2022-11-18T17:07:38.751Z,51.20
2022-11-18T17:08:59.789Z,42.17
2022-11-18T17:10:22.612Z,58.73
2022-11-18T17:11:43.175Z,44.42
2022-11-18T17:13:04.805Z,43.28
2022-11-18T17:14:25.778Z,60.13
2022-11-18T17:15:46.567Z,48.60
2022-11-18T17:17:07.739Z,52.53
2022-11-18T17:18:28.461Z,51.17
2022-11-18T17:19:49.151Z,57.33
2022-11-18T17:21:11.523Z,47.25
2022-11-18T17:22:32.056Z,51.78
2022-11-18T17:23:53.083Z,49.08
2022-11-18T17:25:13.477Z,50.08
2022-11-18T17:26:34.293Z,53.80
2022-11-18T17:27:54.817Z,47.72
2022-11-18T17:29:17.330Z,50.78
2022-11-18T17:30:39.210Z,54.45
2022-11-18T17:31:59.808Z,45.33
2022-11-18T17:33:20.737Z,55.22
2022-11-18T17:34:41.250Z,44.30
2022-11-18T17:36:03.240Z,51.75
2022-11-18T17:37:23.698Z,51.67
2022-11-18T17:38:46.632Z,49.92
2022-11-18T17:40:09.044Z,50.58
2022-11-18T17:41:29.519Z,51.92
2022-11-18T17:42:50.513Z,44.10
2022-11-18T17:44:11.994Z,53.93
2022-11-18T17:45:34.240Z,49.35
2022-11-18T17:46:54.976Z,54.58
2022-11-18T17:48:15.574Z,53.50
2022-11-18T17:49:36.081Z,54.22
2022-11-18T17:51:03.417Z,49.05
2022-11-18T17:52:24.063Z,46.75
2022-11-18T17:53:44.708Z,53.05
2022-11-18T17:55:06.232Z,50.57
2022-11-18T17:56:26.705Z,63.53
2022-11-18T17:57:47.490Z,51.55
2022-11-18T17:59:08.527Z,48.28
2022-11-18T18:00:28.967Z,54.80
2022-11-18T18:01:57.386Z,49.90
2022-11-18T18:03:19.799Z,62.78
2022-11-18T18:04:40.429Z,58.05
2022-11-18T18:06:01.644Z,53.85
2022-11-18T18:07:22.164Z,56.65
2022-11-18T18:08:42.957Z,58.60
2022-11-18T18:10:04.192Z,49.33
2022-11-18T18:11:24.990Z,56.05
2022-11-18T18:12:45.478Z,47.85
2022-11-18T18:14:06.114Z,51.90
2022-11-18T18:15:26.567Z,54.25
2022-11-18T18:16:48.497Z,55.50
2022-11-18T18:18:10.034Z,40.90
2022-11-18T18:19:30.557Z,41.97
2022-11-18T18:20:50.811Z,54.50
2022-11-18T18:22:11.520Z,50.10
2022-11-18T18:23:32.263Z,55.63
2022-11-18T18:24:52.658Z,56.15
2022-11-18T18:26:13.261Z,41.88
2022-11-18T18:27:33.866Z,44.75
2022-11-18T18:28:54.579Z,48.23
2022-11-18T18:30:15.699Z,50.10
2022-11-18T18:31:36.746Z,46.83
2022-11-18T18:32:57.416Z,48.03
2022-11-18T18:34:19.513Z,46.63
2022-11-18T18:35:41.222Z,50.47
2022-11-18T18:37:01.565Z,41.75
2022-11-18T18:38:22.297Z,47.17
2022-11-18T18:39:43.368Z,48.58
2022-11-18T18:41:04.985Z,55.88
2022-11-18T18:42:25.294Z,57.05
2022-11-18T18:43:46.255Z,48.03
2022-11-18T18:45:08.820Z,43.92
2022-11-18T18:46:30.713Z,52.10
2022-11-18T18:47:51.744Z,51.00